Time;durP1;ratioP1;P1;durP2;ratioP2;P2;SDS_P1;SDS_P2;PMS_P1;PMS_P2;Temp;Humidity;BMP_temperature;BMP_pressure;BME280_temperature;BME280_humidity;BME280_pressure;Samples;Min_cycle;Max_cycle;Signal;HPM_P1;HPM_P2
2022/08/06 00:00:28;;;;;;;;;2.00;2.00;;;;;18.14;45.76;101594.47;5076454;27;45267;-80
2022/08/06 00:02:53;;;;;;;;;2.00;2.00;;;;;18.22;45.89;101612.66;5076759;27;45612;-78
2022/08/06 00:05:19;;;;;;;;;2.00;2.00;;;;;18.20;44.95;101602.09;5074588;28;45900;-75
2022/08/06 00:07:44;;;;;;;;;0.75;0.75;;;;;18.19;45.08;101613.69;5074322;28;45351;-76
2022/08/06 00:10:09;;;;;;;;;2.00;2.00;;;;;18.13;46.75;101619.38;5077347;27;45599;-80
2022/08/06 00:12:35;;;;;;;;;2.75;2.75;;;;;18.14;45.95;101621.09;5075467;27;45369;-73
2022/08/06 00:15:03;;;;;;;;;2.00;2.00;;;;;18.15;45.32;101622.81;5075786;28;45408;-78
2022/08/06 00:17:28;;;;;;;;;7.75;7.75;;;;;18.09;46.23;101617.81;5075740;27;45322;-76
2022/08/06 00:19:54;;;;;;;;;5.75;5.75;;;;;18.09;46.64;101616.00;5075835;27;45472;-76
2022/08/06 00:22:19;;;;;;;;;4.25;4.25;;;;;17.98;45.66;101602.41;5074540;27;46539;-78
2022/08/06 00:24:44;;;;;;;;;6.75;6.75;;;;;17.88;46.58;101607.34;5075647;27;45226;-80
2022/08/06 00:27:10;;;;;;;;;5.00;5.00;;;;;17.94;46.49;101623.00;5076333;27;45564;-80
2022/08/06 00:29:35;;;;;;;;;5.25;5.25;;;;;17.92;47.02;101611.56;5079018;27;45257;-76
2022/08/06 00:32:01;;;;;;;;;5.00;5.00;;;;;17.86;46.82;101609.25;5077305;27;45436;-75
2022/08/06 00:34:26;;;;;;;;;7.00;7.00;;;;;17.92;47.05;101624.88;5078354;27;45210;-77
2022/08/06 00:36:51;;;;;;;;;6.00;6.00;;;;;17.82;46.37;101628.97;5085989;27;45195;-75
2022/08/06 00:39:17;;;;;;;;;6.75;6.75;;;;;17.67;47.01;101607.59;5081215;27;45216;-79
2022/08/06 00:41:43;;;;;;;;;7.00;7.00;;;;;17.73;47.87;101626.81;5076556;27;45521;-77
2022/08/06 00:44:09;;;;;;;;;8.25;8.25;;;;;17.67;47.21;101620.88;5080574;27;45333;-82
2022/08/06 00:46:34;;;;;;;;;11.25;10.50;;;;;17.60;47.62;101611.53;5078154;27;45318;-78
2022/08/06 00:49:00;;;;;;;;;7.00;7.00;;;;;17.58;47.28;101616.06;5075264;27;45265;-75
2022/08/06 00:51:25;;;;;;;;;12.50;12.50;;;;;17.52;47.22;101605.75;5075087;27;45425;-79
2022/08/06 00:53:51;;;;;;;;;9.50;9.50;;;;;17.55;48.32;101631.34;5076519;27;45283;-78
2022/08/06 00:56:17;;;;;;;;;10.50;10.25;;;;;17.59;49.00;101633.75;5075388;27;45298;-83
2022/08/06 00:58:42;;;;;;;;;11.50;11.50;;;;;17.61;48.50;101626.53;5075821;27;45233;-81
2022/08/06 01:01:09;;;;;;;;;10.25;10.25;;;;;17.59;48.19;101632.91;5074972;27;46400;-79
2022/08/06 01:03:34;;;;;;;;;8.50;8.50;;;;;17.54;48.88;101634.94;5074898;28;45187;-78
2022/08/06 01:05:59;;;;;;;;;10.25;10.25;;;;;17.49;48.58;101629.84;5073529;27;45328;-77
2022/08/06 01:08:25;;;;;;;;;9.00;9.00;;;;;17.47;49.23;101647.69;5077951;27;45279;-78
2022/08/06 01:10:50;;;;;;;;;11.25;10.50;;;;;17.39;49.62;101632.13;5087475;27;46254;-80
2022/08/06 01:13:16;;;;;;;;;7.50;7.50;;;;;17.32;48.89;101634.25;5087250;27;45407;-78
2022/08/06 01:15:51;;;;;;;;;9.00;9.00;;;;;17.22;49.57;101623.22;5086571;27;45264;-79
2022/08/06 01:18:25;;;;;;;;;7.00;7.00;;;;;17.17;49.66;101646.53;5089374;27;45230;-79
2022/08/06 01:21:05;;;;;;;;;7.00;7.00;;;;;17.07;50.21;101635.53;5086705;27;45659;-79
2022/08/06 01:23:40;;;;;;;;;6.00;6.00;;;;;17.00;50.66;101644.75;5082831;27;45390;-81
2022/08/06 01:26:31;;;;;;;;;5.00;5.00;;;;;16.94;50.73;101645.00;5080006;27;45387;-78
2022/08/06 01:29:00;;;;;;;;;13.75;13.75;;;;;16.88;51.01;101647.97;5078657;28;45309;-76
2022/08/06 01:31:36;;;;;;;;;6.00;5.25;;;;;16.80;50.55;101643.03;5077887;27;45587;-78
2022/08/06 01:34:15;;;;;;;;;4.00;4.00;;;;;16.77;50.79;101649.38;5078332;27;45420;-78
2022/08/06 01:36:45;;;;;;;;;2.00;2.00;;;;;16.71;51.33;101646.16;5077875;27;45409;-82
2022/08/06 01:39:13;;;;;;;;;3.75;3.75;;;;;16.53;50.21;101627.53;5079395;27;45344;-78
2022/08/06 01:41:45;;;;;;;;;3.50;3.50;;;;;16.50;49.88;101641.81;5078327;27;46115;-78
2022/08/06 01:44:17;;;;;;;;;2.25;2.25;;;;;16.48;50.42;101643.69;5077965;27;45373;-78
2022/08/06 01:46:53;;;;;;;;;5.75;5.75;;;;;16.41;51.12;101630.75;5078607;27;45399;-78
2022/08/06 01:49:31;;;;;;;;;3.75;3.50;;;;;16.47;51.65;101641.13;5078650;27;45244;-78
2022/08/06 01:51:59;;;;;;;;;5.00;5.00;;;;;16.48;51.40;101634.88;5077379;27;46379;-77
2022/08/06 01:54:28;;;;;;;;;6.50;5.25;;;;;16.49;50.91;101645.41;5077948;27;45407;-73
2022/08/06 01:56:57;;;;;;;;;7.00;7.00;;;;;16.48;51.36;101643.69;5078033;28;45429;-75
2022/08/06 01:59:30;;;;;;;;;7.00;7.00;;;;;16.46;51.16;101640.25;5078120;27;45359;-72
2022/08/06 02:01:57;;;;;;;;;5.50;5.50;;;;;16.44;51.62;101646.56;5077845;27;46443;-72
2022/08/06 02:04:27;;;;;;;;;7.00;7.00;;;;;16.39;52.15;101646.78;5077356;27;45287;-76
2022/08/06 02:06:55;;;;;;;;;8.00;8.00;;;;;16.36;50.81;101633.66;5078304;28;45361;-76
2022/08/06 02:09:22;;;;;;;;;6.50;6.50;;;;;16.36;51.53;101646.94;5077075;27;45475;-80
2022/08/06 02:11:58;;;;;;;;;4.00;4.00;;;;;16.35;51.22;101647.88;5083308;27;48576;-75
2022/08/06 02:14:28;;;;;;;;;5.00;5.00;;;;;16.25;51.27;101634.16;5097227;27;44880;-71
2022/08/06 02:16:56;;;;;;;;;4.25;4.25;;;;;16.24;51.63;101644.84;5087245;27;45382;-77
2022/08/06 02:19:25;;;;;;;;;2.00;2.00;;;;;16.23;52.05;101646.63;5080565;27;45450;-75
2022/08/06 02:21:52;;;;;;;;;5.50;5.00;;;;;16.18;52.29;101646.88;5077837;27;46770;-72
2022/08/06 02:24:19;;;;;;;;;3.00;3.00;;;;;16.09;52.03;101631.38;5077564;27;45437;-75
2022/08/06 02:26:46;;;;;;;;;6.00;6.00;;;;;16.16;52.36;101643.44;5077603;27;45398;-73
2022/08/06 02:29:16;;;;;;;;;3.50;3.50;;;;;16.14;52.76;101637.31;5077553;27;45491;-73
2022/08/06 02:31:43;;;;;;;;;4.00;4.00;;;;;16.12;53.14;101633.00;5077226;27;45266;-75
2022/08/06 02:34:09;;;;;;;;;4.00;4.00;;;;;16.19;52.24;101645.06;5075899;27;45426;-78
2022/08/06 02:36:41;;;;;;;;;3.75;3.75;;;;;16.16;52.72;101637.25;5077487;27;45483;-78
2022/08/06 02:39:14;;;;;;;;;3.50;3.50;;;;;16.16;52.10;101637.25;5077668;27;45373;-77
2022/08/06 02:41:49;;;;;;;;;2.75;2.75;;;;;16.06;52.46;101635.00;5077725;28;46427;-79
2022/08/06 02:44:22;;;;;;;;;4.00;4.00;;;;;16.08;53.32;101642.91;5077648;28;45327;-79
2022/08/06 02:47:04;;;;;;;;;4.00;4.00;;;;;16.11;52.73;101645.44;5077977;27;45266;-80
2022/08/06 02:49:36;;;;;;;;;4.50;4.50;;;;;16.09;52.79;101647.31;5077938;28;45384;-79
2022/08/06 02:52:13;;;;;;;;;4.00;4.00;;;;;16.06;53.19;101647.44;5077265;27;46568;-77
2022/08/06 02:54:43;;;;;;;;;3.75;3.75;;;;;16.08;53.09;101640.28;5077998;27;45936;-77
2022/08/06 02:57:16;;;;;;;;;4.00;4.00;;;;;16.05;53.56;101635.94;5077367;27;45262;-75
2022/08/06 02:59:49;;;;;;;;;3.00;3.00;;;;;16.06;52.99;101642.13;5077923;27;45412;-77
2022/08/06 03:02:16;;;;;;;;;5.00;5.00;;;;;16.05;52.91;101640.41;5078510;28;46040;-76
2022/08/06 03:04:47;;;;;;;;;3.50;3.50;;;;;16.04;53.73;101634.22;5077862;27;45256;-75
2022/08/06 03:07:13;;;;;;;;;2.00;2.00;;;;;16.01;53.96;101638.84;5078557;27;45194;-77
2022/08/06 03:09:45;;;;;;;;;3.50;3.50;;;;;15.98;54.06;101638.97;5079763;27;45591;-76
2022/08/06 03:12:12;;;;;;;;;4.00;4.00;;;;;15.85;54.03;101626.22;5086893;27;45306;-78
2022/08/06 03:14:39;;;;;;;;;3.00;3.00;;;;;15.85;54.36;101634.16;5085420;27;45275;-76
2022/08/06 03:17:07;;;;;;;;;3.00;3.00;;;;;15.81;54.53;101640.53;5082803;27;45350;-73
2022/08/06 03:19:33;;;;;;;;;3.25;3.25;;;;;15.71;54.53;101632.16;5075374;28;45464;-75
2022/08/06 03:22:00;;;;;;;;;2.25;2.25;;;;;15.47;54.18;101597.88;5076443;27;46170;-77
2022/08/06 03:24:26;;;;;;;;;2.00;2.00;;;;;15.59;55.13;101630.91;5075301;27;45412;-77
2022/08/06 03:26:57;;;;;;;;;4.00;4.00;;;;;15.54;55.21;101630.25;5076621;27;45227;-76
2022/08/06 03:29:25;;;;;;;;;2.00;2.00;;;;;15.50;55.37;101627.81;5076751;28;45331;-77
2022/08/06 03:31:50;;;;;;;;;4.00;4.00;;;;;15.43;55.48;101621.91;5075262;27;45573;-75
2022/08/06 03:34:17;;;;;;;;;3.25;3.25;;;;;15.42;55.14;101634.31;5076076;27;45275;-78
2022/08/06 03:36:43;;;;;;;;;2.75;2.75;;;;;15.34;55.17;101628.47;5076602;27;45247;-79
2022/08/06 03:39:11;;;;;;;;;3.00;3.00;;;;;15.28;55.88;101634.91;5076544;27;45331;-78
2022/08/06 03:41:39;;;;;;;;;4.50;4.50;;;;;15.20;55.73;101626.44;5075345;28;46954;-78
2022/08/06 03:44:04;;;;;;;;;6.50;6.50;;;;;15.17;55.52;101637.16;5077213;28;45284;-78
2022/08/06 03:46:45;;;;;;;;;6.75;6.75;;;;;15.13;55.44;101641.72;5076493;27;45355;-77
2022/08/06 03:49:18;;;;;;;;;7.25;7.25;;;;;15.10;56.31;101646.31;5077666;27;45285;-80
2022/08/06 03:51:47;;;;;;;;;10.00;10.00;;;;;15.08;56.40;101635.75;5078259;27;46638;-78
2022/08/06 03:54:16;;;;;;;;;9.00;9.00;;;;;14.95;55.98;101629.25;5077685;28;45283;-77
2022/08/06 03:56:44;;;;;;;;;9.00;9.00;;;;;15.01;56.28;101636.94;5076259;27;45361;-77
2022/08/06 03:59:12;;;;;;;;;7.50;7.50;;;;;14.98;56.27;101645.03;5076665;27;45504;-78
2022/08/06 04:01:41;;;;;;;;;7.50;7.50;;;;;14.94;56.63;101633.72;5075809;27;45994;-76
2022/08/06 04:04:07;;;;;;;;;7.00;7.00;;;;;14.92;56.61;101638.22;5092246;27;46132;-75
2022/08/06 04:06:34;;;;;;;;;5.00;5.00;;;;;14.88;56.91;101631.31;5076122;28;45507;-74
2022/08/06 04:09:00;;;;;;;;;4.00;4.00;;;;;14.87;56.93;101642.84;5076617;28;45649;-77
2022/08/06 04:11:26;;;;;;;;;5.00;5.00;;;;;14.82;57.09;101632.41;5084007;28;46369;-79
2022/08/06 04:13:53;;;;;;;;;4.00;4.00;;;;;14.85;57.32;101642.03;5085891;27;45426;-72
2022/08/06 04:16:19;;;;;;;;;4.00;4.00;;;;;14.83;57.45;101638.56;5081823;27;45257;-73
2022/08/06 04:18:45;;;;;;;;;3.00;3.00;;;;;14.80;57.24;101646.63;5083434;27;45314;-75
2022/08/06 04:21:21;;;;;;;;;4.50;4.50;;;;;14.75;57.38;101642.38;5080244;27;45647;-75
2022/08/06 04:23:47;;;;;;;;;3.00;3.00;;;;;14.77;57.60;101657.34;5079753;27;45369;-76
2022/08/06 04:26:17;;;;;;;;;3.00;3.00;;;;;14.73;57.59;101646.88;5077655;27;45331;-79
2022/08/06 04:28:47;;;;;;;;;3.00;3.00;;;;;14.69;57.53;101655.00;5077492;27;45393;-74
2022/08/06 04:31:13;;;;;;;;;4.75;4.75;;;;;14.64;57.00;101641.09;5077652;27;46164;-74
2022/08/06 04:33:40;;;;;;;;;2.00;2.00;;;;;14.63;57.52;101642.84;5076182;28;45362;-80
2022/08/06 04:36:06;;;;;;;;;2.50;2.50;;;;;14.52;57.71;101629.19;5075719;27;45390;-78
2022/08/06 04:38:33;;;;;;;;;7.00;7.00;;;;;14.59;57.58;101652.72;5076202;27;45522;-80
2022/08/06 04:40:59;;;;;;;;;3.25;3.25;;;;;14.62;57.66;101670.25;5091099;27;47224;-80
2022/08/06 04:43:25;;;;;;;;;3.00;3.00;;;;;14.62;57.72;101675.56;5079811;27;45438;-80
2022/08/06 04:45:51;;;;;;;;;4.00;4.00;;;;;14.51;57.40;101651.28;5079498;27;45261;-80
2022/08/06 04:48:18;;;;;;;;;4.00;4.00;;;;;14.57;57.57;101675.75;5079988;27;45294;-80
2022/08/06 04:50:44;;;;;;;;;2.75;2.75;;;;;14.51;57.67;101664.53;5080359;27;45509;-80
2022/08/06 04:53:16;;;;;;;;;3.00;3.00;;;;;14.59;57.93;101680.97;5079410;27;45389;-81
2022/08/06 04:55:42;;;;;;;;;5.00;5.00;;;;;14.57;57.50;101675.75;5080765;27;45447;-79
2022/08/06 04:58:09;;;;;;;;;2.00;2.00;;;;;14.56;57.18;101689.03;5096759;27;45557;-81
2022/08/06 05:00:38;;;;;;;;;3.00;3.00;;;;;14.54;57.36;101685.59;5083974;27;45733;-79
2022/08/06 05:03:04;;;;;;;;;2.50;2.50;;;;;14.54;57.37;101697.06;5093767;27;45269;-77
2022/08/06 05:05:33;;;;;;;;;2.00;2.00;;;;;14.54;57.48;101688.25;5096651;27;45178;-77
2022/08/06 05:08:02;;;;;;;;;4.00;4.00;;;;;14.54;57.14;101688.25;5099886;27;45223;-79
2022/08/06 05:10:37;;;;;;;;;2.00;2.00;;;;;14.51;57.56;101683.94;5098369;28;46124;-77
2022/08/06 05:13:05;;;;;;;;;2.00;2.00;;;;;14.51;57.36;101691.88;5085723;27;45467;-80
2022/08/06 05:15:40;;;;;;;;;3.25;3.25;;;;;14.56;57.78;101694.34;5079489;27;45267;-79
2022/08/06 05:18:14;;;;;;;;;3.00;3.00;;;;;14.88;57.03;101692.25;5079596;27;45356;-79
2022/08/06 05:20:46;;;;;;;;;3.00;3.00;;;;;15.24;56.81;101704.00;5078636;27;45459;-80
2022/08/06 05:23:36;;;;;;;;;1.25;1.25;;;;;15.26;56.38;101692.44;5078828;27;45339;-78
2022/08/06 05:26:02;;;;;;;;;3.00;3.00;;;;;15.18;56.58;101703.34;5073464;27;45374;-81
2022/08/06 05:28:27;;;;;;;;;2.00;2.00;;;;;15.11;56.55;101707.19;5078929;27;45607;-78
2022/08/06 05:30:53;;;;;;;;;1.00;1.00;;;;;15.00;56.52;101706.75;5078722;27;45493;-78
2022/08/06 05:33:30;;;;;;;;;3.00;3.00;;;;;14.92;56.68;101701.78;5078408;27;45423;-69
2022/08/06 05:35:57;;;;;;;;;2.00;2.00;;;;;14.89;56.81;101707.22;5078098;27;45563;-68
2022/08/06 05:38:23;;;;;;;;;3.00;3.00;;;;;14.83;56.87;101707.44;5077860;27;45322;-68
2022/08/06 05:40:49;;;;;;;;;2.00;2.00;;;;;14.83;57.01;101704.78;5077620;27;46467;-71
2022/08/06 05:43:15;;;;;;;;;3.00;3.00;;;;;14.78;57.04;101704.97;5076629;28;46025;-70
2022/08/06 05:45:43;;;;;;;;;3.00;3.00;;;;;14.82;57.23;101709.22;5077961;27;45201;-71
2022/08/06 05:48:11;;;;;;;;;4.00;4.00;;;;;14.82;57.17;101718.94;5078279;27;45484;-70
2022/08/06 05:50:43;;;;;;;;;2.75;2.75;;;;;14.83;57.02;101718.03;5077992;27;45376;-70
2022/08/06 05:53:18;;;;;;;;;2.00;2.00;;;;;14.84;57.14;101719.75;5077043;27;45403;-71
2022/08/06 05:56:09;;;;;;;;;3.00;3.00;;;;;14.84;57.09;101714.44;5077868;28;45468;-72
2022/08/06 05:59:06;;;;;;;;;3.00;3.00;;;;;14.87;58.07;101725.81;5077985;28;45338;-71
2022/08/06 06:01:34;;;;;;;;;2.00;2.00;;;;;14.93;57.49;101724.72;5073807;28;45693;-72
2022/08/06 06:03:59;;;;;;;;;2.00;2.00;;;;;14.96;57.14;101724.59;5077438;28;45380;-73
2022/08/06 06:06:26;;;;;;;;;2.50;2.50;;;;;14.95;56.86;101732.56;5077542;28;45357;-72
2022/08/06 06:08:52;;;;;;;;;2.50;2.50;;;;;14.96;56.53;101724.59;5077855;27;45287;-72
2022/08/06 06:11:19;;;;;;;;;3.00;3.00;;;;;14.97;56.26;101726.31;5077245;27;45384;-72
2022/08/06 06:13:45;;;;;;;;;3.00;3.00;;;;;14.99;56.39;101727.09;5076789;27;45305;-72
2022/08/06 06:16:31;;;;;;;;;3.00;3.00;;;;;15.04;56.55;101711.00;5092939;27;45449;-76
2022/08/06 06:19:17;;;;;;;;;3.50;3.50;;;;;15.08;56.40;101715.25;5077792;27;45302;-78
2022/08/06 06:22:24;;;;;;;;;3.25;3.25;;;;;15.11;56.25;101715.13;5077291;27;46289;-78
2022/08/06 06:25:34;;;;;;;;;3.00;3.00;;;;;15.23;56.40;101724.38;5063755;27;45472;-79
2022/08/06 06:28:01;;;;;;;;;3.00;3.00;;;;;15.27;55.71;101720.66;5077529;27;45184;-70
2022/08/06 06:30:46;;;;;;;;;2.00;2.00;;;;;15.32;54.88;101721.34;5077489;27;45560;-73
2022/08/06 06:33:24;;;;;;;;;1.25;1.25;;;;;15.32;53.87;101712.50;5078061;27;45916;-76
2022/08/06 06:36:05;;;;;;;;;2.00;2.00;;;;;15.34;54.48;101719.47;5077438;27;45258;-72
2022/08/06 06:39:04;;;;;;;;;3.00;3.00;;;;;15.41;53.65;101725.41;5079027;27;45395;-79
2022/08/06 06:41:34;;;;;;;;;1.75;1.75;;;;;15.51;53.22;101727.66;5080731;27;45474;-68
2022/08/06 06:44:24;;;;;;;;;3.00;3.00;;;;;15.60;54.19;101725.44;5079073;27;45684;-78
2022/08/06 06:47:14;;;;;;;;;2.00;2.00;;;;;15.69;54.18;101725.97;5077874;27;45464;-73
2022/08/06 06:49:44;;;;;;;;;0.50;0.50;;;;;15.71;51.85;101725.00;5077510;28;45207;-72
2022/08/06 06:52:25;;;;;;;;;2.25;2.25;;;;;15.83;52.14;101731.53;5077676;27;45375;-72
2022/08/06 06:55:08;;;;;;;;;2.00;2.00;;;;;15.87;51.61;101738.47;5076690;27;45424;-70
2022/08/06 06:57:37;;;;;;;;;1.75;1.75;;;;;15.92;50.99;101735.63;5075950;27;45374;-70
2022/08/06 07:00:05;;;;;;;;;2.00;2.00;;;;;16.03;51.01;101737.81;5087302;27;45343;-69
2022/08/06 07:02:35;;;;;;;;;2.00;2.00;;;;;16.06;51.00;101725.25;5082040;27;45602;-71
2022/08/06 07:05:05;;;;;;;;;2.00;2.00;;;;;16.21;48.64;101730.78;5078848;27;45546;-78
2022/08/06 07:07:36;;;;;;;;;14.75;14.75;;;;;16.28;49.72;101736.69;5076311;27;45399;-72
2022/08/06 07:10:05;;;;;;;;;2.00;2.00;;;;;16.40;49.79;101737.91;5076275;27;45209;-76
2022/08/06 07:12:34;;;;;;;;;2.00;2.00;;;;;16.48;49.52;101733.13;5074691;27;45530;-74
2022/08/06 07:15:01;;;;;;;;;2.00;2.00;;;;;16.57;50.62;101735.34;5074640;27;47564;-71
2022/08/06 07:17:32;;;;;;;;;3.00;3.00;;;;;16.67;50.22;101738.41;5075987;27;45248;-70
2022/08/06 07:20:01;;;;;;;;;1.00;1.00;;;;;16.82;49.74;101747.47;5076123;27;45446;-72
2022/08/06 07:22:27;;;;;;;;;3.00;3.00;;;;;16.85;47.37;101744.66;5076201;27;45228;-73
2022/08/06 07:25:00;;;;;;;;;1.25;1.25;;;;;16.90;49.38;101749.72;5076089;28;46398;-72
2022/08/06 07:27:48;;;;;;;;;0.75;0.75;;;;;17.03;46.98;101763.34;5075979;27;45368;-72
2022/08/06 07:30:15;;;;;;;;;1.00;1.00;;;;;17.07;46.57;101757.81;5075862;27;45505;-72
2022/08/06 07:32:43;;;;;;;;;2.50;2.50;;;;;17.14;47.05;101753.03;5076360;27;45539;-70
2022/08/06 07:35:09;;;;;;;;;1.00;1.00;;;;;17.20;47.04;101747.41;5074441;27;47093;-72
2022/08/06 07:37:37;;;;;;;;;1.75;1.75;;;;;17.30;46.68;101749.59;5075506;27;45365;-71
2022/08/06 07:40:05;;;;;;;;;0.25;0.25;;;;;17.40;46.72;101758.00;5075827;27;45249;-72
2022/08/06 07:42:30;;;;;;;;;1.00;1.00;;;;;17.51;46.87;101767.16;5074514;27;45409;-74
2022/08/06 07:45:02;;;;;;;;;1.25;1.25;;;;;17.59;46.79;101758.78;5074166;28;45970;-74
2022/08/06 07:47:42;;;;;;;;;1.75;1.75;;;;;17.70;45.01;101758.25;5075775;27;45562;-74
2022/08/06 07:50:11;;;;;;;;;1.00;1.00;;;;;17.81;45.08;101760.31;5076035;27;45271;-74
2022/08/06 07:52:40;;;;;;;;;0.50;0.50;;;;;17.90;46.06;101761.66;5076397;27;45628;-70
2022/08/06 07:55:10;;;;;;;;;2.75;2.75;;;;;18.03;44.78;101764.59;5076554;27;45292;-71
2022/08/06 07:57:36;;;;;;;;;3.00;1.25;;;;;18.10;44.34;101766.81;5077573;27;45489;-71
2022/08/06 08:00:03;;;;;;;;;1.00;1.00;;;;;18.15;44.29;101769.25;5075868;27;45342;-71
2022/08/06 08:02:29;;;;;;;;;2.00;2.00;;;;;18.19;44.33;101762.81;5075882;27;45500;-71
2022/08/06 08:07:39;;;;;;;;;0.75;0.75;;;;;18.38;44.59;101767.16;5075294;28;45397;-70
2022/08/06 08:10:05;;;;;;;;;2.50;2.50;;;;;18.48;42.77;101767.50;5075219;27;45410;-72
2022/08/06 08:12:32;;;;;;;;;0.75;0.75;;;;;18.53;43.19;101771.63;5075444;28;45358;-71
2022/08/06 08:14:58;;;;;;;;;1.00;1.00;;;;;18.64;43.66;101767.50;5075016;28;46406;-72
2022/08/06 08:17:24;;;;;;;;;1.25;1.25;;;;;18.72;42.74;101757.28;5074805;27;45391;-71
2022/08/06 08:19:49;;;;;;;;;1.00;1.00;;;;;18.80;43.35;101768.38;5075305;27;45569;-73
2022/08/06 08:22:18;;;;;;;;;1.00;1.00;;;;;18.86;41.77;101772.50;5075827;27;45572;-71
2022/08/06 08:24:45;;;;;;;;;2.00;2.00;;;;;18.82;42.61;101774.47;5075501;27;45614;-72
2022/08/06 08:27:11;;;;;;;;;0.00;0.00;;;;;18.89;42.05;101780.34;5074251;28;45737;-71
2022/08/06 08:29:39;;;;;;;;;1.00;1.00;;;;;18.95;42.17;101779.13;5075339;28;45320;-72
2022/08/06 08:32:05;;;;;;;;;1.00;1.00;;;;;19.06;42.70;101774.06;5075391;27;45235;-72
2022/08/06 08:34:31;;;;;;;;;0.25;0.25;;;;;19.23;42.32;101769.59;5074906;27;46152;-71
2022/08/06 08:36:57;;;;;;;;;0.50;0.50;;;;;19.32;40.58;101765.50;5074991;27;45383;-73
2022/08/06 08:39:22;;;;;;;;;0.00;0.00;;;;;19.34;41.50;101761.81;5075064;28;45219;-73
2022/08/06 08:42:11;;;;;;;;;0.50;0.50;;;;;19.40;41.02;101758.78;5075373;27;45290;-71
2022/08/06 08:44:37;;;;;;;;;0.00;0.00;;;;;19.46;41.11;101770.03;5073397;27;46392;-74
2022/08/06 08:47:03;;;;;;;;;0.00;0.00;;;;;19.52;40.62;101759.00;5090335;27;45465;-74
2022/08/06 08:49:39;;;;;;;;;0.00;0.00;;;;;19.52;41.51;101743.84;5074820;27;45371;-74
2022/08/06 08:52:13;;;;;;;;;2.00;2.00;;;;;19.80;41.86;101760.00;5074864;27;45235;-74
2022/08/06 08:54:43;;;;;;;;;3.00;3.00;;;;;19.94;40.95;101761.88;5075071;27;45458;-75
2022/08/06 08:57:08;;;;;;;;;0.00;0.00;;;;;20.03;40.10;101747.09;5075045;27;45514;-74
2022/08/06 08:59:39;;;;;;;;;0.00;0.00;;;;;20.10;40.42;101757.31;5075356;27;45310;-72
2022/08/06 09:02:05;;;;;;;;;0.75;0.75;;;;;20.20;40.01;101754.06;5075329;27;45239;-75
2022/08/06 09:04:32;;;;;;;;;0.00;0.00;;;;;20.25;39.55;101755.50;5074599;27;45199;-73
2022/08/06 09:06:58;;;;;;;;;0.00;0.00;;;;;20.33;36.57;101748.81;5075285;27;45383;-72
2022/08/06 09:09:24;;;;;;;;;0.25;0.25;;;;;20.35;36.10;101746.91;5073398;28;45367;-73
2022/08/06 09:11:49;;;;;;;;;1.00;1.00;;;;;20.38;35.42;101752.06;5075148;27;45544;-71
2022/08/06 09:14:15;;;;;;;;;0.00;0.00;;;;;20.42;36.19;101758.94;5075262;27;46000;-71
2022/08/06 09:16:40;;;;;;;;;0.00;0.00;;;;;20.50;36.50;101747.72;5074949;27;45428;-71
2022/08/06 09:19:06;;;;;;;;;0.00;0.00;;;;;20.61;37.04;101760.41;5074790;27;45367;-75
2022/08/06 09:21:32;;;;;;;;;0.00;0.00;;;;;20.63;34.49;101755.84;5075049;27;45544;-70
2022/08/06 09:23:58;;;;;;;;;0.00;0.00;;;;;20.62;35.49;101768.31;5074625;27;46313;-71
2022/08/06 09:26:23;;;;;;;;;0.00;0.00;;;;;20.67;36.15;101762.69;5074515;27;45413;-71
2022/08/06 09:28:49;;;;;;;;;0.00;0.00;;;;;20.79;37.31;101761.94;5075972;27;45317;-72
2022/08/06 09:31:17;;;;;;;;;1.50;0.00;;;;;20.94;37.03;101772.59;5078653;27;45277;-72
2022/08/06 09:33:53;;;;;;;;;1.00;1.00;;;;;21.08;34.05;101771.69;5078096;27;46305;-71
2022/08/06 09:36:19;;;;;;;;;0.00;0.00;;;;;21.20;37.04;101761.97;5078463;27;45308;-71
2022/08/06 09:38:53;;;;;;;;;0.00;0.00;;;;;21.28;36.04;101762.34;5078113;27;45319;-73
2022/08/06 09:41:23;;;;;;;;;0.00;0.00;;;;;21.35;35.77;101763.66;5078388;27;45381;-73
2022/08/06 09:43:50;;;;;;;;;2.25;2.25;;;;;21.36;34.44;101768.03;5077886;27;46266;-72
2022/08/06 09:46:17;;;;;;;;;0.00;0.00;;;;;21.45;36.54;101762.06;5077742;27;45439;-71
2022/08/06 09:49:00;;;;;;;;;0.00;0.00;;;;;21.64;36.17;101768.00;5077629;27;45303;-72
2022/08/06 09:51:26;;;;;;;;;19.75;19.75;;;;;21.73;34.65;101760.19;5077529;27;45535;-71
2022/08/06 09:53:57;;;;;;;;;5.75;5.75;;;;;21.83;35.19;101754.22;5077500;27;46300;-74
2022/08/06 09:56:24;;;;;;;;;1.00;1.00;;;;;21.94;35.35;101765.03;5077263;27;46209;-70
2022/08/06 09:58:50;;;;;;;;;2.00;2.00;;;;;22.08;33.60;101768.56;5077404;27;45378;-73
2022/08/06 10:01:18;;;;;;;;;1.25;1.25;;;;;22.07;32.73;101762.34;5077755;27;45648;-73
2022/08/06 10:03:44;;;;;;;;;0.00;0.00;;;;;22.11;33.88;101768.34;5077067;27;46292;-72
2022/08/06 10:06:13;;;;;;;;;1.00;1.00;;;;;22.12;32.87;101764.69;5076951;27;45365;-72
2022/08/06 10:08:39;;;;;;;;;0.00;0.00;;;;;22.16;33.81;101759.03;5077153;27;45352;-73
2022/08/06 10:11:06;;;;;;;;;6.75;6.75;;;;;22.20;34.46;101767.69;5077159;27;45291;-71
2022/08/06 10:13:32;;;;;;;;;2.00;2.00;;;;;22.28;33.94;101762.66;5076659;27;45391;-72
2022/08/06 10:16:00;;;;;;;;;0.00;0.00;;;;;22.39;32.28;101759.19;5076880;27;45272;-72
2022/08/06 10:18:36;;;;;;;;;0.25;0.25;;;;;22.40;33.06;101760.06;5076975;27;45459;-74
2022/08/06 10:21:07;;;;;;;;;2.00;2.00;;;;;22.47;34.11;101770.25;5076768;27;45543;-72
2022/08/06 10:23:34;;;;;;;;;3.75;3.75;;;;;22.50;32.65;101749.56;5076453;27;46398;-70
2022/08/06 10:26:05;;;;;;;;;6.75;6.75;;;;;22.60;34.27;101761.31;5076541;27;45389;-72
2022/08/06 10:28:33;;;;;;;;;0.50;0.50;;;;;22.59;32.18;101752.44;5076787;27;45341;-71
2022/08/06 10:31:02;;;;;;;;;0.00;0.00;;;;;22.64;32.20;101752.09;5076735;27;45472;-73
2022/08/06 10:33:32;;;;;;;;;1.50;1.50;;;;;22.63;32.26;101750.38;5076193;27;46659;-72
2022/08/06 10:36:04;;;;;;;;;0.00;0.00;;;;;22.57;30.78;101757.06;5076659;27;45180;-71
2022/08/06 10:38:33;;;;;;;;;1.00;1.00;;;;;22.59;31.94;101747.06;5076879;27;45334;-75
2022/08/06 10:41:02;;;;;;;;;0.00;0.00;;;;;22.66;31.94;101739.41;5077193;27;45366;-72
2022/08/06 10:43:29;;;;;;;;;0.00;0.00;;;;;22.65;31.59;101747.59;5093076;27;48363;-75
2022/08/06 10:45:55;;;;;;;;;1.25;1.25;;;;;22.69;32.15;101736.50;5078269;27;45377;-73
2022/08/06 10:48:23;;;;;;;;;1.00;1.00;;;;;22.77;32.25;101746.69;5081930;27;45325;-72
2022/08/06 10:50:49;;;;;;;;;1.25;1.00;;;;;22.79;30.21;101735.81;5081955;27;45279;-72
2022/08/06 10:53:16;;;;;;;;;1.00;1.00;;;;;22.84;31.11;101747.09;5076662;28;46399;-71
2022/08/06 10:55:41;;;;;;;;;0.00;0.00;;;;;22.91;31.87;101735.78;5076896;27;45405;-71
2022/08/06 10:58:08;;;;;;;;;2.50;2.50;;;;;22.98;30.55;101730.84;5077351;27;45322;-71
2022/08/06 11:00:35;;;;;;;;;1.75;1.75;;;;;23.07;30.93;101734.63;5077275;27;45319;-73
2022/08/06 11:03:17;;;;;;;;;3.50;3.50;;;;;23.14;31.79;101722.47;5075941;27;46152;-72
2022/08/06 11:05:48;;;;;;;;;2.75;2.75;;;;;23.22;30.02;101729.06;5076354;27;45436;-74
2022/08/06 11:08:53;;;;;;;;;3.00;3.00;;;;;23.34;31.94;101714.78;5076428;28;45380;-77
2022/08/06 11:11:39;;;;;;;;;0.00;0.00;;;;;23.36;29.80;101726.25;5064364;27;45523;-75
2022/08/06 11:14:10;;;;;;;;;6.25;5.25;;;;;23.29;31.12;101717.78;5054578;27;45566;-73
2022/08/06 11:16:36;;;;;;;;;8.00;7.50;;;;;23.32;30.99;101722.94;5074200;28;45437;-73
2022/08/06 11:19:04;;;;;;;;;4.00;4.00;;;;;23.43;32.17;101715.88;5076196;27;45335;-71
2022/08/06 11:21:49;;;;;;;;;0.00;0.00;;;;;23.51;31.37;101715.31;5076226;27;45515;-72
2022/08/06 11:24:15;;;;;;;;;1.00;1.00;;;;;23.51;31.18;101713.44;5075600;27;45427;-74
2022/08/06 11:26:44;;;;;;;;;0.50;0.50;;;;;23.53;31.23;101706.13;5075807;27;44716;-73
2022/08/06 11:29:12;;;;;;;;;1.00;1.00;;;;;23.57;32.05;101696.03;5076343;27;45425;-72
2022/08/06 11:31:45;;;;;;;;;1.00;1.00;;;;;23.70;31.30;101703.97;5075885;27;45628;-72
2022/08/06 11:34:14;;;;;;;;;5.00;4.00;;;;;23.77;31.89;101698.00;5075736;27;45653;-72
2022/08/06 11:36:59;;;;;;;;;4.25;4.25;;;;;23.86;30.84;101700.94;5075706;27;45373;-71
2022/08/06 11:39:27;;;;;;;;;4.50;4.50;;;;;23.99;31.76;101698.97;5075953;27;45381;-73